Main page
METAR-TAF:

METAR-TAF

Airports :

Durham, England

Durham Tees Valley Airport

latitude: 54-31N, longitude: 001-25W, elevation: 37 m

Current weather observation

The report was made 33 minutes ago, at 18:20 UTC
Wind 6 kt from the North
Temperature 8°C
Humidity 81%
Pressure 1027 hPa
Visibility 10 km or more
no clouds below 1500 m and no cumulonimbus

METAR: EGNV 261820Z 01006KT CAVOK 08/05 Q1027

Time: 19:53 (18:53 UTC)

Forecast

The report was made 1 hour and 51 minutes ago, at 17:02 UTC
Forecast valid from 26 at 18 UTC to 26 at 22 UTC
Wind 9 kt from the East/Northeast
Visibility 10 km or more
Few clouds at a height of 4000 ft
Temporary
from 26 at 20 UTC to 26 at 22 UTC
Broken clouds at a height of 1200 ft

TAF: EGNV 261702Z 2618/2622 06009KT 9999 FEW040 TEMPO 2620/2622 BKN012

Weather observations and forecasts of more than 4000 airports (METAR and TAF reports).

The available stations are represented by yellow and red dots on the map.

Hover mouse over dot to see the name of the station.

Then click to see weather observations and forecasts.

To change the map : click on the green buttons with a black cross to zoom in, on the green button with a dash to zoom out, or on the green arrows for adjacent maps.


METAR-TAF: